Time;durP1;ratioP1;P1;durP2;ratioP2;P2;SDS_P1;SDS_P2;PMS_P1;PMS_P2;Temp;Humidity;BMP_temperature;BMP_pressure;BME280_temperature;BME280_humidity;BME280_pressure;Samples;Min_cycle;Max_cycle;Signal;HPM_P1;HPM_P2
2023/11/05 00:00:26;;;;;;;12.77;2.53;;;9.70;99.90;;;;;;5055038;28;20231;-62
2023/11/05 00:02:54;;;;;;;11.23;2.43;;;9.70;99.90;;;;;;5056703;28;20230;-62
2023/11/05 00:05:23;;;;;;;10.37;2.67;;;9.70;99.90;;;;;;5055788;28;20317;-62
2023/11/05 00:07:51;;;;;;;14.20;2.53;;;9.70;99.90;;;;;;5063360;28;20196;-62
2023/11/05 00:10:19;;;;;;;11.70;2.53;;;9.70;99.90;;;;;;5061390;28;20194;-62
2023/11/05 00:12:47;;;;;;;16.90;2.90;;;9.60;99.90;;;;;;5059670;28;20227;-63
2023/11/05 00:15:16;;;;;;;16.30;3.17;;;9.60;99.90;;;;;;5060268;28;20746;-63
2023/11/05 00:17:45;;;;;;;15.27;3.30;;;9.60;99.90;;;;;;5060302;28;20223;-63
2023/11/05 00:20:15;;;;;;;16.33;3.17;;;9.60;99.90;;;;;;5058239;28;20217;-62
2023/11/05 00:22:43;;;;;;;17.73;3.33;;;9.60;99.90;;;;;;5053255;28;20251;-62
2023/11/05 00:25:11;;;;;;;14.87;3.20;;;9.60;99.90;;;;;;5061513;28;20531;-63
2023/11/05 00:27:40;;;;;;;19.87;3.33;;;9.60;99.90;;;;;;5047099;28;20606;-63
2023/11/05 00:30:09;;;;;;;17.20;3.30;;;9.60;99.90;;;;;;5059524;28;20219;-63
2023/11/05 00:32:37;;;;;;;15.67;3.47;;;9.60;99.90;;;;;;5062642;28;20254;-63
2023/11/05 00:35:07;;;;;;;14.23;3.33;;;9.60;99.90;;;;;;5040359;28;20227;-63
2023/11/05 00:37:36;;;;;;;9.27;3.13;;;9.50;99.90;;;;;;5060588;28;20655;-62
2023/11/05 00:40:05;;;;;;;9.23;3.03;;;9.60;99.90;;;;;;5059219;28;20228;-63
2023/11/05 00:42:34;;;;;;;12.33;2.97;;;9.60;99.90;;;;;;5059182;28;20211;-63
2023/11/05 00:45:02;;;;;;;22.13;3.30;;;9.50;99.90;;;;;;5054943;28;20224;-63
2023/11/05 00:47:30;;;;;;;13.83;3.80;;;9.60;99.90;;;;;;5063004;28;20705;-63
2023/11/05 00:49:59;;;;;;;14.77;3.20;;;9.60;99.90;;;;;;5065862;28;20227;-63
2023/11/05 00:52:29;;;;;;;18.83;3.33;;;9.60;99.90;;;;;;5063050;28;20188;-64
2023/11/05 00:54:57;;;;;;;13.53;3.23;;;9.50;99.90;;;;;;5066778;28;20211;-63
2023/11/05 00:57:25;;;;;;;16.33;3.70;;;9.50;99.90;;;;;;5046073;28;20317;-63
2023/11/05 00:59:53;;;;;;;14.97;3.60;;;9.50;99.90;;;;;;5062741;28;20224;-63
2023/11/05 01:02:22;;;;;;;14.87;3.67;;;9.60;99.90;;;;;;5063784;28;21617;-63
2023/11/05 01:04:50;;;;;;;8.70;3.00;;;9.60;99.90;;;;;;5062980;28;20236;-63
2023/11/05 01:07:19;;;;;;;16.00;3.87;;;9.60;99.90;;;;;;5062694;28;20192;-63
2023/11/05 01:09:48;;;;;;;11.30;3.63;;;9.60;99.90;;;;;;5065594;28;20224;-63
2023/11/05 01:12:16;;;;;;;18.57;3.40;;;9.50;99.90;;;;;;5060972;28;20311;-64
2023/11/05 01:14:45;;;;;;;14.03;3.40;;;9.60;99.90;;;;;;5065037;28;20235;-63
2023/11/05 01:17:13;;;;;;;14.20;3.30;;;9.60;99.90;;;;;;5060494;28;20226;-63
2023/11/05 01:19:42;;;;;;;13.83;3.37;;;9.50;99.90;;;;;;5067336;28;20554;-62
2023/11/05 01:22:10;;;;;;;13.27;3.60;;;9.50;99.90;;;;;;5079406;28;20818;-63
2023/11/05 01:24:39;;;;;;;8.93;3.90;;;9.60;99.90;;;;;;5085731;28;20230;-63
2023/11/05 01:27:08;;;;;;;12.23;3.37;;;9.60;99.90;;;;;;5081832;28;20215;-63
2023/11/05 01:29:37;;;;;;;13.87;3.23;;;9.60;99.90;;;;;;5089045;28;20272;-63
2023/11/05 01:32:07;;;;;;;15.10;3.30;;;9.50;99.90;;;;;;5068015;28;20222;-63
2023/11/05 01:34:35;;;;;;;14.57;3.47;;;9.60;99.90;;;;;;5079335;28;20287;-60
2023/11/05 01:37:03;;;;;;;12.37;3.43;;;9.60;99.90;;;;;;5086481;28;20519;-63
2023/11/05 01:39:32;;;;;;;14.00;3.17;;;9.60;99.90;;;;;;5081305;28;20696;-63
2023/11/05 01:42:00;;;;;;;15.47;3.50;;;9.60;99.90;;;;;;5083607;28;20224;-63
2023/11/05 01:44:30;;;;;;;12.93;3.70;;;9.60;99.90;;;;;;5083198;28;20223;-63
2023/11/05 01:46:59;;;;;;;12.67;2.60;;;9.60;99.90;;;;;;5084290;28;20219;-63
2023/11/05 01:49:27;;;;;;;12.20;2.90;;;9.60;99.90;;;;;;5086208;28;20280;-63
2023/11/05 01:51:55;;;;;;;17.93;3.70;;;9.60;99.90;;;;;;5087088;28;20739;-63
2023/11/05 01:54:24;;;;;;;16.17;2.60;;;9.60;99.90;;;;;;5081328;28;20211;-63
2023/11/05 01:56:53;;;;;;;17.27;2.90;;;9.60;99.90;;;;;;5083160;28;20224;-63
2023/11/05 01:59:21;;;;;;;13.80;3.03;;;9.60;99.90;;;;;;5082329;28;20215;-63
2023/11/05 02:01:52;;;;;;;6.47;2.27;;;9.60;99.90;;;;;;5086082;28;20213;-63
2023/11/05 02:04:21;;;;;;;10.27;2.60;;;9.70;99.90;;;;;;5082738;28;20231;-64
2023/11/05 02:06:50;;;;;;;11.97;2.43;;;9.70;99.90;;;;;;5082292;28;20734;-63
2023/11/05 02:09:18;;;;;;;13.57;2.67;;;9.70;99.90;;;;;;5082008;28;20219;-63
2023/11/05 02:11:46;;;;;;;15.63;2.40;;;9.70;99.90;;;;;;5087448;28;21053;-63
2023/11/05 02:14:15;;;;;;;10.47;2.60;;;9.70;99.90;;;;;;5084639;28;20232;-63
2023/11/05 02:16:43;;;;;;;15.73;2.70;;;9.70;99.90;;;;;;5083011;28;20218;-62
2023/11/05 02:19:13;;;;;;;14.83;2.60;;;9.70;99.90;;;;;;5081615;28;20200;-63
2023/11/05 02:21:44;;;;;;;7.57;2.83;;;9.70;99.90;;;;;;5078509;28;20234;-64
2023/11/05 02:24:14;;;;;;;7.67;2.33;;;9.70;99.90;;;;;;5080698;28;20269;-63
2023/11/05 02:26:42;;;;;;;13.17;2.67;;;9.70;99.90;;;;;;5085006;28;20306;-63
2023/11/05 02:29:11;;;;;;;18.07;3.00;;;9.70;99.90;;;;;;5066982;28;20225;-63
2023/11/05 02:31:39;;;;;;;13.23;2.63;;;9.70;99.90;;;;;;5080235;28;20188;-63
2023/11/05 02:34:07;;;;;;;10.00;2.30;;;9.70;99.90;;;;;;5086925;28;20199;-63
2023/11/05 02:36:35;;;;;;;17.37;2.70;;;9.80;99.90;;;;;;5063319;28;20770;-63
2023/11/05 02:39:04;;;;;;;13.70;2.50;;;9.80;99.90;;;;;;5078835;28;20222;-63
2023/11/05 02:41:34;;;;;;;13.17;2.77;;;9.80;99.90;;;;;;5083750;28;20240;-62
2023/11/05 02:44:02;;;;;;;15.63;2.50;;;9.80;99.90;;;;;;5081376;28;20315;-62
2023/11/05 02:46:30;;;;;;;15.73;3.13;;;9.80;99.90;;;;;;5082953;28;20290;-63
2023/11/05 02:48:59;;;;;;;12.00;2.80;;;9.80;99.90;;;;;;5081217;28;20218;-63
2023/11/05 02:51:27;;;;;;;12.80;2.57;;;9.80;99.90;;;;;;5082827;28;20223;-63
2023/11/05 02:53:55;;;;;;;16.60;2.77;;;9.90;99.90;;;;;;5084430;28;20551;-63
2023/11/05 02:56:24;;;;;;;12.77;2.73;;;9.90;99.90;;;;;;5069709;28;20309;-62
2023/11/05 02:58:54;;;;;;;12.60;3.23;;;9.90;99.90;;;;;;5078464;28;20207;-62
2023/11/05 03:01:23;;;;;;;8.60;2.70;;;9.90;99.90;;;;;;5081437;28;20225;-63
2023/11/05 03:03:52;;;;;;;13.23;3.00;;;9.90;99.90;;;;;;5079973;28;20256;-63
2023/11/05 03:06:20;;;;;;;13.80;2.63;;;10.00;99.90;;;;;;5078018;28;20226;-63
2023/11/05 03:08:48;;;;;;;12.93;2.67;;;10.00;99.90;;;;;;5083548;28;20226;-63
2023/11/05 03:11:17;;;;;;;12.27;2.80;;;10.00;99.90;;;;;;5082513;28;20577;-63
2023/11/05 03:13:45;;;;;;;13.23;2.77;;;10.00;99.90;;;;;;5079295;28;20322;-62
2023/11/05 03:16:15;;;;;;;14.67;3.00;;;10.00;99.90;;;;;;5081192;28;20192;-63
2023/11/05 03:18:43;;;;;;;22.30;3.00;;;10.00;99.90;;;;;;5081120;28;20276;-62
2023/11/05 03:21:15;;;;;;;19.03;2.87;;;10.10;99.90;;;;;;5081286;28;20280;-62
2023/11/05 03:23:43;;;;;;;11.90;2.70;;;10.10;99.90;;;;;;5080278;28;20215;-63
2023/11/05 03:26:12;;;;;;;15.70;3.07;;;10.10;99.90;;;;;;5079973;28;20222;-62
2023/11/05 03:28:40;;;;;;;10.33;2.50;;;10.00;99.90;;;;;;5074574;28;20536;-60
2023/11/05 03:31:08;;;;;;;12.97;3.03;;;10.10;99.90;;;;;;5082873;28;20203;-63
2023/11/05 03:33:37;;;;;;;16.57;3.17;;;10.10;99.90;;;;;;5082891;28;20219;-63
2023/11/05 03:36:07;;;;;;;14.17;2.80;;;10.10;99.90;;;;;;5061839;28;20258;-63
2023/11/05 03:38:35;;;;;;;17.73;3.10;;;10.10;99.90;;;;;;5083217;28;20216;-63
2023/11/05 03:41:04;;;;;;;13.90;3.27;;;10.20;99.90;;;;;;5081390;28;20690;-62
2023/11/05 03:43:33;;;;;;;13.30;2.77;;;10.20;99.90;;;;;;5081197;28;20207;-63
2023/11/05 03:46:03;;;;;;;16.33;3.03;;;10.20;99.90;;;;;;5078850;28;20298;-63
2023/11/05 03:48:31;;;;;;;12.77;3.00;;;10.20;99.90;;;;;;5080436;28;20310;-62
2023/11/05 03:51:01;;;;;;;17.00;3.20;;;10.20;99.90;;;;;;5081876;28;20310;-62
2023/11/05 03:53:29;;;;;;;16.10;2.77;;;10.20;99.90;;;;;;5082137;28;20211;-63
2023/11/05 03:55:57;;;;;;;21.43;3.70;;;10.30;99.90;;;;;;5081242;28;20226;-63
2023/11/05 03:58:25;;;;;;;18.97;3.30;;;10.20;99.90;;;;;;5083789;28;20235;-63
2023/11/05 04:00:54;;;;;;;19.83;2.97;;;10.20;99.90;;;;;;5079897;28;20243;-63
2023/11/05 04:03:22;;;;;;;11.47;3.03;;;10.20;99.90;;;;;;5082805;28;20241;-63
2023/11/05 04:05:51;;;;;;;14.20;3.30;;;10.20;99.90;;;;;;5079832;28;20216;-63
2023/11/05 04:08:21;;;;;;;15.30;3.00;;;10.20;99.90;;;;;;5077990;28;20605;-63
2023/11/05 04:10:49;;;;;;;13.90;3.00;;;10.20;99.90;;;;;;5082464;28;20191;-63
2023/11/05 04:13:18;;;;;;;15.97;3.00;;;10.20;99.90;;;;;;5083051;28;20196;-63
2023/11/05 04:15:46;;;;;;;13.40;3.17;;;10.20;99.90;;;;;;5084513;28;20298;-63
2023/11/05 04:18:14;;;;;;;8.53;3.10;;;10.20;99.90;;;;;;5078614;28;20709;-63
2023/11/05 04:20:42;;;;;;;12.27;3.07;;;10.20;99.90;;;;;;5081740;28;20322;-63
2023/11/05 04:23:11;;;;;;;15.33;2.83;;;10.20;99.90;;;;;;5087727;28;20233;-63
2023/11/05 04:25:41;;;;;;;13.57;3.10;;;10.30;99.90;;;;;;5084753;28;20198;-63
2023/11/05 04:28:09;;;;;;;14.43;3.03;;;10.20;99.90;;;;;;5066328;28;20190;-63
2023/11/05 04:30:37;;;;;;;16.90;3.17;;;10.10;99.90;;;;;;5083659;28;21560;-63
2023/11/05 04:33:05;;;;;;;19.43;3.47;;;10.20;99.90;;;;;;5081298;28;20230;-63
2023/11/05 04:35:34;;;;;;;14.67;3.10;;;10.10;99.90;;;;;;5086924;28;20217;-63
2023/11/05 04:38:02;;;;;;;15.27;2.93;;;10.10;99.90;;;;;;5083413;28;20251;-63
2023/11/05 04:40:30;;;;;;;9.60;2.70;;;10.20;99.90;;;;;;5086524;28;20219;-63
2023/11/05 04:43:00;;;;;;;17.70;3.30;;;10.10;99.90;;;;;;5083445;28;20310;-63
2023/11/05 04:45:30;;;;;;;11.80;2.80;;;10.10;99.90;;;;;;5086540;28;20219;-64
2023/11/05 04:47:58;;;;;;;20.60;3.70;;;10.10;99.90;;;;;;5085192;28;20226;-64
2023/11/05 04:50:27;;;;;;;10.50;2.93;;;10.10;99.90;;;;;;5085578;28;20231;-63
2023/11/05 04:52:55;;;;;;;14.97;2.93;;;10.10;99.90;;;;;;5082638;28;21680;-64
2023/11/05 04:55:23;;;;;;;22.33;3.20;;;10.10;99.90;;;;;;5084475;28;20203;-63
2023/11/05 04:57:51;;;;;;;12.00;3.40;;;10.00;99.90;;;;;;5081163;28;20635;-64
2023/11/05 05:00:21;;;;;;;16.20;3.27;;;10.00;99.90;;;;;;5084945;28;20230;-63
2023/11/05 05:02:49;;;;;;;13.90;2.83;;;10.00;99.90;;;;;;5076985;28;20220;-64
2023/11/05 05:05:18;;;;;;;9.83;2.53;;;10.10;99.90;;;;;;5082407;28;20307;-63
2023/11/05 05:07:46;;;;;;;14.57;2.47;;;10.10;99.90;;;;;;5084366;28;20207;-63
2023/11/05 05:10:15;;;;;;;13.80;2.83;;;10.10;99.90;;;;;;5064615;28;20278;-64
2023/11/05 05:12:44;;;;;;;15.47;3.03;;;10.10;99.90;;;;;;5083430;28;20219;-64
2023/11/05 05:15:12;;;;;;;10.53;3.23;;;10.20;99.90;;;;;;5082567;28;20554;-64
2023/11/05 05:17:42;;;;;;;11.13;2.70;;;10.10;99.90;;;;;;5083345;28;20307;-64
2023/11/05 05:20:11;;;;;;;11.23;2.93;;;10.10;99.90;;;;;;5068832;28;20226;-64
2023/11/05 05:22:39;;;;;;;18.13;3.47;;;10.20;99.90;;;;;;5087401;28;20531;-63
2023/11/05 05:25:10;;;;;;;9.73;3.03;;;10.20;99.90;;;;;;5083426;28;20219;-64
2023/11/05 05:27:38;;;;;;;13.10;3.43;;;10.20;99.90;;;;;;5086633;28;20215;-64
2023/11/05 05:30:08;;;;;;;17.03;3.43;;;10.20;99.90;;;;;;5081787;28;20223;-64
2023/11/05 05:32:36;;;;;;;14.80;3.30;;;10.20;99.90;;;;;;5082587;28;20211;-64
2023/11/05 05:35:07;;;;;;;15.93;3.30;;;10.20;99.90;;;;;;5081648;28;20215;-63
2023/11/05 05:37:35;;;;;;;20.77;4.23;;;10.30;99.90;;;;;;5085296;28;20195;-60
2023/11/05 05:40:05;;;;;;;16.43;3.77;;;10.30;99.90;;;;;;5082349;28;20547;-64
2023/11/05 05:42:33;;;;;;;17.40;3.67;;;10.30;99.90;;;;;;5085671;28;20207;-64
2023/11/05 05:45:02;;;;;;;18.80;3.40;;;10.30;99.90;;;;;;5084940;28;20216;-63
2023/11/05 05:47:31;;;;;;;18.33;3.63;;;10.30;99.90;;;;;;5081527;28;20230;-63
2023/11/05 05:49:59;;;;;;;24.53;3.67;;;10.20;99.90;;;;;;5084116;28;20223;-63
2023/11/05 05:52:29;;;;;;;17.63;3.40;;;10.30;99.90;;;;;;5082984;28;20199;-64
2023/11/05 05:54:57;;;;;;;14.13;3.53;;;10.20;99.90;;;;;;5064162;28;20257;-62
2023/11/05 05:57:25;;;;;;;20.57;3.60;;;10.20;99.90;;;;;;5081226;28;20215;-64
2023/11/05 05:59:53;;;;;;;17.10;3.70;;;10.10;99.90;;;;;;5083230;28;20220;-64
2023/11/05 06:02:22;;;;;;;24.53;4.20;;;10.10;99.90;;;;;;5084868;28;20220;-63
2023/11/05 06:04:50;;;;;;;21.43;4.53;;;10.10;99.90;;;;;;5080341;28;20318;-63
2023/11/05 06:07:18;;;;;;;16.27;3.93;;;10.10;99.90;;;;;;5087834;28;20657;-63
2023/11/05 06:09:48;;;;;;;9.87;3.27;;;10.10;99.90;;;;;;5082438;28;20857;-63
2023/11/05 06:12:16;;;;;;;16.80;3.47;;;10.20;99.90;;;;;;5085049;28;20219;-63
2023/11/05 06:14:45;;;;;;;13.20;3.53;;;10.10;99.90;;;;;;5079038;28;20230;-64
2023/11/05 06:17:20;;;;;;;13.57;3.27;;;10.20;99.90;;;;;;5080378;28;20216;-63
2023/11/05 06:19:48;;;;;;;14.87;3.40;;;10.20;99.90;;;;;;5082444;28;20199;-63
2023/11/05 06:22:16;;;;;;;15.17;3.10;;;10.20;99.90;;;;;;5085477;28;20546;-64
2023/11/05 06:24:45;;;;;;;9.17;3.60;;;10.20;99.90;;;;;;5082074;28;20239;-63
2023/11/05 06:27:14;;;;;;;17.33;3.03;;;10.20;99.90;;;;;;5081832;28;20573;-63
2023/11/05 06:29:43;;;;;;;10.47;3.07;;;10.20;99.90;;;;;;5079534;28;20234;-63
2023/11/05 06:32:11;;;;;;;13.93;3.33;;;10.20;99.90;;;;;;5083174;28;20223;-63
2023/11/05 06:34:39;;;;;;;11.67;3.47;;;10.20;99.90;;;;;;5080336;28;20184;-63
2023/11/05 06:37:07;;;;;;;15.10;3.07;;;10.10;99.90;;;;;;5082372;28;20184;-63
2023/11/05 06:39:35;;;;;;;6.07;3.00;;;10.10;99.90;;;;;;5084506;28;20315;-63
2023/11/05 06:42:04;;;;;;;12.27;3.40;;;10.10;99.90;;;;;;5083390;28;20222;-63
2023/11/05 06:44:34;;;;;;;14.73;3.93;;;10.10;99.90;;;;;;5080965;28;20216;-63
2023/11/05 06:47:02;;;;;;;8.47;3.17;;;10.00;99.90;;;;;;5080243;28;20306;-63
2023/11/05 06:49:30;;;;;;;15.03;4.03;;;10.10;99.90;;;;;;5083099;28;20198;-63
2023/11/05 06:51:58;;;;;;;11.60;3.77;;;10.10;99.90;;;;;;5084480;28;20244;-63
2023/11/05 06:54:27;;;;;;;17.60;4.50;;;10.20;99.90;;;;;;5080678;28;21455;-64
2023/11/05 06:56:55;;;;;;;16.20;4.40;;;10.20;99.90;;;;;;5086933;28;20247;-63
2023/11/05 06:59:24;;;;;;;13.60;4.17;;;10.10;99.90;;;;;;5056019;28;20217;-63
2023/11/05 07:01:53;;;;;;;7.20;3.97;;;10.10;99.90;;;;;;5068583;28;20188;-63
2023/11/05 07:04:22;;;;;;;7.53;3.80;;;10.10;99.90;;;;;;5076879;28;20709;-63
2023/11/05 07:06:50;;;;;;;6.90;3.63;;;10.10;99.90;;;;;;5079065;28;20214;-63
2023/11/05 07:09:19;;;;;;;10.27;4.10;;;10.10;99.90;;;;;;5080735;28;20687;-63
2023/11/05 07:11:48;;;;;;;9.57;3.63;;;10.10;99.90;;;;;;5080441;28;20230;-63
2023/11/05 07:14:16;;;;;;;9.33;3.70;;;10.20;99.90;;;;;;5061704;28;20219;-64
2023/11/05 07:16:45;;;;;;;9.03;3.97;;;10.10;99.90;;;;;;5079210;28;20210;-63
2023/11/05 07:19:14;;;;;;;11.13;3.87;;;10.10;99.90;;;;;;5080010;28;20590;-63
2023/11/05 07:21:45;;;;;;;8.00;4.00;;;10.10;99.90;;;;;;5079089;28;20226;-64
2023/11/05 07:24:14;;;;;;;10.83;4.00;;;10.10;99.90;;;;;;5080815;28;20298;-63
2023/11/05 07:26:43;;;;;;;10.93;3.73;;;10.10;99.90;;;;;;5081200;28;20214;-63
2023/11/05 07:29:12;;;;;;;9.53;3.43;;;10.20;99.90;;;;;;5064033;28;20622;-64
2023/11/05 07:31:42;;;;;;;8.63;3.40;;;10.20;99.90;;;;;;5084271;28;21000;-63
2023/11/05 07:34:11;;;;;;;15.67;3.73;;;10.20;99.90;;;;;;5080581;28;20195;-63
2023/11/05 07:36:41;;;;;;;10.17;3.27;;;10.20;99.90;;;;;;5081695;28;20220;-64
2023/11/05 07:39:09;;;;;;;7.73;3.10;;;10.30;99.90;;;;;;5080437;28;20587;-64
2023/11/05 07:41:38;;;;;;;9.47;2.97;;;10.30;99.90;;;;;;5080349;28;20246;-63
2023/11/05 07:44:06;;;;;;;5.13;2.83;;;10.30;99.90;;;;;;5081577;28;20609;-63
2023/11/05 07:46:35;;;;;;;8.37;3.07;;;10.40;99.90;;;;;;5079975;28;20542;-51
2023/11/05 07:49:05;;;;;;;9.53;2.83;;;10.40;99.90;;;;;;5084218;28;20238;-64
2023/11/05 07:51:34;;;;;;;8.60;3.07;;;10.40;99.90;;;;;;5083720;28;20211;-64
2023/11/05 07:54:05;;;;;;;8.03;2.57;;;10.40;99.90;;;;;;5081574;28;20289;-63
2023/11/05 07:56:33;;;;;;;5.47;2.27;;;10.40;99.90;;;;;;5085323;28;20219;-64
2023/11/05 07:59:03;;;;;;;9.13;2.60;;;10.50;99.90;;;;;;5085957;28;20310;-63
2023/11/05 08:01:32;;;;;;;10.60;2.53;;;10.60;99.90;;;;;;5086726;28;20194;-64
2023/11/05 08:04:00;;;;;;;3.80;2.30;;;10.70;99.90;;;;;;5082105;28;20226;-64
2023/11/05 08:06:29;;;;;;;6.23;2.37;;;10.80;99.90;;;;;;5084270;28;20215;-63
2023/11/05 08:08:57;;;;;;;7.27;2.10;;;10.80;99.90;;;;;;5085938;28;21003;-63
2023/11/05 08:11:26;;;;;;;4.77;2.23;;;10.80;99.90;;;;;;5084939;28;20227;-63
2023/11/05 08:13:54;;;;;;;8.07;2.40;;;10.80;99.90;;;;;;5079259;28;20641;-63
2023/11/05 08:16:22;;;;;;;6.37;2.27;;;10.80;99.90;;;;;;5088206;28;20544;-63
2023/11/05 08:18:51;;;;;;;11.20;2.43;;;10.80;99.90;;;;;;5082350;28;20215;-63
2023/11/05 08:21:20;;;;;;;7.80;2.37;;;10.80;99.90;;;;;;5081111;28;20212;-63
2023/11/05 08:23:49;;;;;;;6.27;2.60;;;10.80;99.90;;;;;;5085932;28;20238;-63
2023/11/05 08:26:18;;;;;;;5.97;2.20;;;10.80;99.90;;;;;;5081547;28;20216;-63
2023/11/05 08:28:48;;;;;;;5.23;2.27;;;10.80;99.90;;;;;;5065571;28;20199;-63
2023/11/05 08:31:16;;;;;;;3.30;2.40;;;10.80;99.90;;;;;;5083254;28;20256;-63
2023/11/05 08:33:44;;;;;;;3.00;2.33;;;10.80;99.90;;;;;;5083356;28;20211;-63
2023/11/05 08:36:12;;;;;;;8.27;2.50;;;10.70;99.90;;;;;;5082081;28;20211;-63
2023/11/05 08:38:40;;;;;;;8.73;3.10;;;10.70;99.90;;;;;;5080865;28;20215;-63
2023/11/05 08:41:09;;;;;;;12.80;3.60;;;10.80;99.90;;;;;;5082573;28;20563;-63
2023/11/05 08:43:37;;;;;;;8.20;3.53;;;10.70;99.90;;;;;;5082766;28;20210;-62
2023/11/05 08:46:07;;;;;;;8.60;3.23;;;10.70;99.90;;;;;;5082981;28;20239;-63
2023/11/05 08:48:35;;;;;;;8.67;3.50;;;10.70;99.90;;;;;;5087334;28;20408;-63
2023/11/05 08:51:04;;;;;;;8.53;3.90;;;10.70;99.90;;;;;;5080693;28;20563;-63
2023/11/05 08:53:32;;;;;;;5.30;3.47;;;10.70;99.90;;;;;;5084250;28;20766;-63
2023/11/05 08:56:00;;;;;;;8.17;3.80;;;10.70;99.90;;;;;;5081454;28;20716;-63
2023/11/05 08:58:29;;;;;;;10.23;4.27;;;10.80;99.90;;;;;;5084690;28;20306;-64
2023/11/05 09:00:58;;;;;;;9.60;4.23;;;10.80;99.90;;;;;;5084961;28;20235;-64
2023/11/05 09:03:28;;;;;;;8.30;4.50;;;10.90;99.90;;;;;;5083640;28;20238;-63
2023/11/05 09:05:58;;;;;;;10.97;4.40;;;11.00;99.90;;;;;;5080441;28;20230;-63
2023/11/05 09:08:27;;;;;;;9.20;5.10;;;11.00;99.90;;;;;;5086739;28;20234;-63
2023/11/05 09:10:55;;;;;;;13.57;4.60;;;11.00;99.90;;;;;;5085691;28;20242;-63
2023/11/05 09:13:24;;;;;;;14.03;5.27;;;11.10;99.90;;;;;;5084589;28;20188;-63
2023/11/05 09:15:54;;;;;;;14.20;4.50;;;11.10;99.90;;;;;;5083177;28;20767;-63
2023/11/05 09:18:23;;;;;;;11.20;5.17;;;11.10;99.90;;;;;;5081764;28;21159;-63
2023/11/05 09:20:55;;;;;;;15.80;5.50;;;11.10;99.90;;;;;;5085070;28;21525;-63
2023/11/05 09:23:23;;;;;;;14.60;6.13;;;11.20;99.90;;;;;;5070055;28;20551;-63
2023/11/05 09:25:52;;;;;;;10.30;5.70;;;11.30;99.90;;;;;;5086481;28;20218;-63
2023/11/05 09:28:21;;;;;;;10.83;6.20;;;11.40;99.90;;;;;;5083031;28;20206;-63
2023/11/05 09:30:49;;;;;;;11.80;6.07;;;11.50;99.90;;;;;;5077498;28;20234;-63
2023/11/05 09:33:17;;;;;;;14.97;6.77;;;11.50;99.90;;;;;;5083195;28;20230;-64
2023/11/05 09:35:45;;;;;;;16.00;6.70;;;11.60;99.90;;;;;;5079691;28;20285;-63
2023/11/05 09:38:15;;;;;;;14.60;6.50;;;11.70;99.90;;;;;;5079538;28;20223;-63
2023/11/05 09:40:44;;;;;;;13.00;6.17;;;11.70;99.90;;;;;;5082278;28;20203;-62
2023/11/05 09:43:12;;;;;;;13.93;6.97;;;11.70;99.90;;;;;;5077007;28;20199;-63
2023/11/05 09:45:40;;;;;;;17.47;7.47;;;11.70;99.90;;;;;;5079719;28;20242;-63
2023/11/05 09:48:11;;;;;;;20.57;7.40;;;11.70;99.90;;;;;;5082612;28;20250;-63
2023/11/05 09:50:42;;;;;;;22.30;8.20;;;11.60;99.90;;;;;;5076910;28;20265;-63
2023/11/05 09:53:11;;;;;;;18.17;7.70;;;11.60;99.90;;;;;;5082219;28;20219;-63
2023/11/05 09:55:42;;;;;;;19.33;7.57;;;11.60;99.90;;;;;;5078399;28;20188;-63
2023/11/05 09:58:11;;;;;;;17.67;9.27;;;11.60;99.90;;;;;;5081343;28;20204;-64
2023/11/05 10:00:40;;;;;;;19.13;8.70;;;11.70;99.90;;;;;;5078980;28;20735;-64
2023/11/05 10:03:09;;;;;;;22.13;8.47;;;11.70;99.90;;;;;;5078447;28;20219;-63
2023/11/05 10:05:39;;;;;;;16.67;9.07;;;11.70;99.90;;;;;;5076781;28;20226;-63
2023/11/05 10:08:08;;;;;;;19.50;9.10;;;11.70;99.90;;;;;;5077535;28;20826;-63
2023/11/05 10:10:38;;;;;;;16.87;9.20;;;11.60;99.90;;;;;;5077227;28;20196;-63
2023/11/05 10:13:08;;;;;;;15.37;8.80;;;11.60;99.90;;;;;;5080713;28;20192;-63
2023/11/05 10:15:37;;;;;;;18.93;8.13;;;11.60;99.90;;;;;;5076625;28;20219;-63
2023/11/05 10:18:06;;;;;;;19.27;8.63;;;11.60;99.90;;;;;;5078973;28;20673;-63
2023/11/05 10:20:49;;;;;;;17.40;8.70;;;11.60;99.90;;;;;;5078633;28;20219;-63
2023/11/05 10:23:18;;;;;;;21.90;9.00;;;11.60;99.90;;;;;;5078111;28;20911;-63
2023/11/05 10:25:48;;;;;;;18.13;9.13;;;11.50;99.90;;;;;;5076507;28;20224;-63
2023/11/05 10:28:19;;;;;;;21.33;9.70;;;11.50;99.90;;;;;;5080630;28;20187;-63
2023/11/05 10:30:49;;;;;;;22.97;9.40;;;11.50;99.90;;;;;;5078455;28;20724;-63
2023/11/05 10:33:19;;;;;;;21.57;9.50;;;11.40;99.90;;;;;;5074909;28;20215;-63
2023/11/05 10:35:47;;;;;;;17.50;8.60;;;11.40;99.90;;;;;;5076582;28;20310;-63
2023/11/05 10:38:18;;;;;;;21.07;10.50;;;11.40;99.90;;;;;;5061463;28;20223;-63
2023/11/05 10:40:48;;;;;;;14.97;8.67;;;11.40;99.90;;;;;;5076423;28;20187;-64
2023/11/05 10:43:24;;;;;;;15.90;9.20;;;11.40;99.90;;;;;;5078111;28;20211;-63
2023/11/05 10:45:54;;;;;;;19.30;8.43;;;11.40;99.90;;;;;;5075283;28;20261;-63
2023/11/05 10:48:23;;;;;;;16.23;8.40;;;11.40;99.90;;;;;;5074210;28;20219;-63
2023/11/05 10:50:53;;;;;;;10.00;7.33;;;11.40;99.90;;;;;;5076392;28;20280;-63
2023/11/05 10:53:22;;;;;;;11.33;6.93;;;11.40;99.90;;;;;;5062667;28;20219;-63
2023/11/05 10:55:51;;;;;;;10.43;6.90;;;11.40;99.90;;;;;;5072388;28;20185;-63
2023/11/05 10:58:22;;;;;;;13.80;6.37;;;11.40;99.90;;;;;;5079780;28;20286;-63
2023/11/05 11:00:57;;;;;;;11.60;6.13;;;11.50;99.90;;;;;;5063890;28;20219;-63
2023/11/05 11:03:26;;;;;;;10.27;5.53;;;11.50;99.90;;;;;;5080136;28;20222;-63
2023/11/05 11:06:05;;;;;;;11.60;5.33;;;11.50;99.90;;;;;;5074058;28;20717;-63
2023/11/05 11:08:35;;;;;;;7.80;4.97;;;11.50;99.90;;;;;;5070692;28;20618;-64
2023/11/05 11:11:09;;;;;;;10.47;5.00;;;11.60;99.90;;;;;;5079508;28;20306;-63
2023/11/05 11:13:47;;;;;;;12.13;5.53;;;11.70;99.90;;;;;;5078210;28;20195;-63
2023/11/05 11:16:22;;;;;;;5.93;4.20;;;12.00;99.90;;;;;;5077527;28;20258;-63
2023/11/05 11:18:54;;;;;;;4.93;4.40;;;12.20;99.90;;;;;;5076537;28;20227;-63
2023/11/05 11:21:23;;;;;;;6.83;4.23;;;12.40;99.90;;;;;;5077138;28;20223;-64
2023/11/05 11:23:52;;;;;;;6.00;4.13;;;12.40;99.90;;;;;;5076643;28;20220;-63
2023/11/05 11:26:22;;;;;;;6.70;5.20;;;12.30;99.90;;;;;;5079596;28;20215;-64
2023/11/05 11:28:59;;;;;;;7.73;4.33;;;12.30;99.90;;;;;;5074461;28;20210;-64
2023/11/05 11:31:28;;;;;;;4.33;4.00;;;12.30;99.90;;;;;;5073423;28;20195;-63
2023/11/05 11:33:56;;;;;;;7.50;4.10;;;12.40;99.90;;;;;;5074483;28;20226;-63
2023/11/05 11:36:24;;;;;;;5.07;4.03;;;12.40;99.90;;;;;;5077807;28;20850;-64
2023/11/05 11:38:53;;;;;;;5.27;3.87;;;12.30;99.90;;;;;;5078675;28;20288;-63
2023/11/05 11:41:21;;;;;;;5.90;4.43;;;12.20;99.90;;;;;;5080145;28;20260;-63
2023/11/05 11:43:49;;;;;;;6.23;3.83;;;12.10;99.90;;;;;;5080078;28;20206;-63
2023/11/05 11:46:23;;;;;;;6.20;4.00;;;11.90;99.90;;;;;;5084391;28;20221;-63
2023/11/05 11:48:52;;;;;;;4.33;3.97;;;11.70;99.90;;;;;;5082803;28;20235;-63
2023/11/05 11:51:22;;;;;;;5.10;4.27;;;11.70;99.90;;;;;;5080853;28;20354;-64
2023/11/05 11:53:50;;;;;;;6.00;4.13;;;11.60;99.90;;;;;;5052363;28;20227;-63
2023/11/05 11:56:19;;;;;;;6.30;3.90;;;11.60;99.90;;;;;;5061482;28;20242;-63
2023/11/05 11:58:47;;;;;;;5.07;4.10;;;11.50;99.90;;;;;;5058862;28;20216;-63
2023/11/05 12:01:17;;;;;;;4.63;4.07;;;11.50;99.90;;;;;;5058562;28;20237;-64
2023/11/05 12:03:48;;;;;;;4.93;4.10;;;11.40;99.90;;;;;;5063066;28;20225;-63
2023/11/05 12:06:17;;;;;;;5.17;4.40;;;11.30;99.90;;;;;;5056188;28;20304;-63
2023/11/05 12:08:46;;;;;;;4.30;3.97;;;11.20;99.90;;;;;;5053339;28;20319;-63
2023/11/05 12:11:17;;;;;;;8.33;4.80;;;11.20;99.90;;;;;;5042404;28;20766;-63
2023/11/05 12:13:48;;;;;;;7.10;3.90;;;11.00;99.90;;;;;;5055638;28;20309;-62
2023/11/05 12:16:18;;;;;;;7.77;4.73;;;11.00;99.90;;;;;;5056628;28;20213;-63
2023/11/05 12:18:49;;;;;;;5.97;4.47;;;10.90;99.90;;;;;;5055539;28;20228;-63
2023/11/05 12:21:18;;;;;;;8.27;5.67;;;10.80;99.90;;;;;;5056724;28;20255;-63
2023/11/05 12:23:48;;;;;;;7.50;5.30;;;10.80;99.90;;;;;;5042192;28;20219;-63
2023/11/05 12:26:18;;;;;;;8.57;5.03;;;10.90;99.90;;;;;;5063880;28;20831;-64
2023/11/05 12:28:47;;;;;;;9.67;5.07;;;11.00;99.90;;;;;;5080935;28;20196;-63
2023/11/05 12:31:15;;;;;;;8.07;5.00;;;11.10;99.90;;;;;;5082804;28;20203;-64
2023/11/05 12:33:45;;;;;;;8.53;5.27;;;11.20;99.90;;;;;;5084198;28;20215;-62
2023/11/05 12:36:15;;;;;;;8.03;5.50;;;11.20;99.90;;;;;;5080305;28;20219;-63
2023/11/05 12:38:43;;;;;;;6.07;4.70;;;11.10;99.90;;;;;;5080768;28;20302;-63
2023/11/05 12:41:11;;;;;;;9.63;5.17;;;11.10;99.90;;;;;;5082841;28;20701;-62
2023/11/05 12:43:40;;;;;;;7.73;4.60;;;11.20;99.90;;;;;;5085092;28;20199;-61
2023/11/05 12:46:09;;;;;;;5.57;4.40;;;11.40;99.90;;;;;;5070636;28;20282;-63
2023/11/05 12:48:38;;;;;;;5.90;4.30;;;11.70;99.90;;;;;;5085896;28;20707;-63
2023/11/05 12:51:06;;;;;;;6.00;3.97;;;12.10;99.90;;;;;;5081341;28;20276;-62